NEWFOUND LAKE DAM: From 01/10/2019 02:00 to 01/24/2019 10:00

Date STAGE [FT] FLOW [CFS] LAKE ELEVATION [FT] PRECIPITATION INCREMENT [IN] AIR TEMPERATURE [DEGF]
01/24/2019 00:00 4.68 61.1 585.46 0.00 28.8
01/23/2019 23:00 4.68 61.1 585.50 0.00 28.1
01/23/2019 22:00 4.67 59.7 585.49 0.00 26.3
01/23/2019 21:00 4.67 59.7 585.45 0.00 25.0
01/23/2019 20:00 4.68 61.1 585.47 0.00 24.4
01/23/2019 19:00 4.67 59.7 585.46 0.00 24.3
01/23/2019 18:00 4.68 61.1 585.46 0.00 24.0
01/23/2019 17:00 4.68 61.1 585.44 0.00 24.4
01/23/2019 16:00 4.67 59.7 585.46 0.00 25.5
01/23/2019 15:00 4.66 58.3 585.43 0.00 26.1
01/23/2019 14:00 4.67 59.7 585.44 0.00 24.6
01/23/2019 13:00 4.68 61.1 585.46 0.00 23.8
01/23/2019 12:00 4.68 61.1 585.46 0.00 22.1
01/23/2019 11:00 4.68 61.1 585.46 0.00 20.2
01/23/2019 10:00 4.68 61.1 585.47 0.00 16.0
01/23/2019 09:00 4.69 62.6 585.47 0.00 14.5
01/23/2019 08:00 4.68 61.1 585.48 0.00 13.4
01/23/2019 07:00 4.68 61.1 585.47 0.00 12.2
01/23/2019 06:00 4.67 59.7 585.44 0.00 11.7
01/23/2019 05:00 4.68 61.1 585.46 0.00 10.8
01/23/2019 04:00 4.68 61.1 585.46 0.00 10.6
01/23/2019 03:00 4.68 61.1 585.46 0.00 10.1
01/23/2019 02:00 4.68 61.1 585.45 0.00 11.3
01/23/2019 01:00 4.67 59.7 585.47 0.00 10.8
01/23/2019 00:00 4.68 61.1 585.47 0.00 11.8
01/22/2019 23:00 4.69 62.6 585.47 0.00 10.4
01/22/2019 22:00 4.69 62.6 585.47 0.00 10.0
01/22/2019 21:00 4.69 62.6 585.47 0.00 10.5
01/22/2019 20:00 4.69 62.6 585.47 0.00 11.9
01/22/2019 19:00 4.69 62.6 585.48 0.00 11.9
01/22/2019 18:00 4.68 61.1 585.47 0.00 8.6
01/22/2019 17:00 4.68 61.1 585.45 0.00 10.9
01/22/2019 16:00 4.68 61.1 585.48 0.00 14.3
01/22/2019 15:00 4.69 62.6 585.47 0.00 15.4
01/22/2019 14:00 4.68 61.1 585.48 0.00 14.2
01/22/2019 13:00 4.68 61.1 585.46 0.00 13.0
01/22/2019 12:00 4.68 61.1 585.45 0.00 8.9
01/22/2019 11:00 4.70 64.0 585.48 0.00 6.4
01/22/2019 10:00 4.68 61.1 585.47 0.00 3.6
01/22/2019 09:00 4.70 64.0 585.49 0.00 0.5
01/22/2019 08:00 4.70 64.0 585.52 0.00 -0.9
01/22/2019 07:00 4.71 65.4 585.49 0.00 -0.8
01/22/2019 06:00 4.71 65.4 585.49 0.00 -1.6
01/22/2019 05:00 4.71 65.4 585.47 0.00 -1.7
01/22/2019 04:00 4.69 62.6 585.50 0.00 -1.8
01/22/2019 03:00 4.69 62.6 585.45 0.00 -1.5
01/22/2019 02:00 4.70 64.0 585.52 0.00 -1.5
01/22/2019 01:00 4.68 61.1 585.49 0.00 -1.6
01/22/2019 00:00 4.67 59.7 585.45 0.00 -1.1
01/21/2019 23:00 4.69 62.6 585.51 0.00 -0.7
01/21/2019 22:00 4.68 61.1 585.48 0.00 -0.6
01/21/2019 21:00 4.68 61.1 585.42 0.00 -0.6
01/21/2019 20:00 4.68 61.1 585.47 0.00 -1.7
01/21/2019 19:00 4.68 61.1 585.47 0.00 -2.9
01/21/2019 18:00 4.68 61.1 585.50 0.00 -3.7
01/21/2019 17:00 4.68 61.1 585.46 0.00 -4.0
01/21/2019 16:00 4.69 62.6 585.48 0.00 -3.3
01/21/2019 15:00 4.68 61.1 585.46 0.00 -2.7
01/21/2019 14:00 4.69 62.6 585.47 0.00 -2.9
01/21/2019 13:00 4.69 62.6 585.49 0.00 -3.5
01/21/2019 12:00 4.68 61.1 585.49 0.00 -3.7
01/21/2019 11:00 4.70 64.0 585.50 0.00 -4.7
01/21/2019 10:00 4.70 64.0 585.48 0.00 -6.2
01/21/2019 09:00 4.70 64.0 585.47 0.00 -6.0
01/21/2019 08:00 4.70 64.0 585.50 0.00 -5.7
01/21/2019 07:00 4.70 64.0 585.48 0.00 -5.3
01/21/2019 06:00 4.69 62.6 585.49 0.00 -4.8
01/21/2019 05:00 4.69 62.6 585.44 0.00 -4.3
01/21/2019 04:00 4.69 62.6 585.43 0.00 -5.2
01/21/2019 03:00 4.69 62.6 585.46 0.00 -5.3
01/21/2019 02:00 4.70 64.0 585.48 0.00 -5.2
01/21/2019 01:00 4.69 62.6 585.49 0.00 -4.7
01/21/2019 00:00 4.69 62.6 585.46 0.00 -3.6
01/20/2019 23:00 4.68 61.1 585.45 0.00 -2.5
01/20/2019 22:00 4.69 62.6 585.52 0.00 -1.0
01/20/2019 21:00 4.68 61.1 585.44 0.00 0.6
01/20/2019 20:00 4.66 58.3 585.39 0.00 3.0
01/20/2019 19:00 4.67 59.7 585.45 0.00 7.3
01/20/2019 18:00 4.68 61.1 585.49 0.00 13.2
01/20/2019 17:00 4.68 61.1 585.45 0.00 17.6
01/20/2019 16:00 4.69 62.6 585.47 0.00 18.8
01/20/2019 15:00 4.70 64.0 585.49 0.00 17.8
01/20/2019 14:00 4.69 62.6 585.48 0.00 17.9
01/20/2019 13:00 4.68 61.1 585.47 0.00 15.2
01/20/2019 12:00 4.69 62.6 585.48 0.00 15.8
01/20/2019 11:00 4.68 61.1 585.43 0.00 14.8
01/20/2019 10:00 4.67 59.7 585.48 0.00 12.7
01/20/2019 09:00 4.68 61.1 585.46 0.00 11.8
01/20/2019 08:00 4.68 61.1 585.43 0.00 11.8
01/20/2019 07:00 4.66 58.3 585.42 0.00 11.9
01/20/2019 06:00 4.67 59.7 585.44 0.00 11.0
01/20/2019 05:00 4.67 59.7 585.44 0.00 10.1
01/20/2019 04:00 4.67 59.7 585.44 0.00 11.3
01/20/2019 03:00 4.65 57.0 585.42 0.00 12.3
01/20/2019 02:00 4.65 57.0 585.39 0.00 12.4
01/20/2019 01:00 4.65 57.0 585.38 0.00 12.9
01/20/2019 00:00 4.65 57.0 585.39 0.00 13.5
01/19/2019 23:00 4.65 57.0 585.39 0.00 13.8
01/19/2019 22:00 4.65 57.0 585.39 0.00 14.3
01/19/2019 21:00 4.64 55.6 585.38 0.00 15.2
01/19/2019 20:00 4.63 54.3 585.36 0.00 16.4
01/19/2019 19:00 4.63 54.3 585.36 0.00 16.1
01/19/2019 18:00 4.63 54.3 585.35 0.00 16.3
01/19/2019 17:00 4.64 55.6 585.37 0.00 18.8
01/19/2019 16:00 4.64 55.6 585.38 0.00 19.5
01/19/2019 15:00 4.64 55.6 585.39 0.00 20.1
01/19/2019 14:00 4.64 55.6 585.38 0.00 20.1
01/19/2019 13:00 4.64 55.6 585.39 0.00 20.1
01/19/2019 12:00 4.64 55.6 585.38 0.00 20.0
01/19/2019 11:00 4.64 55.6 585.38 0.00 18.8
01/19/2019 10:00 4.64 55.6 585.38 0.00 17.2
01/19/2019 09:00 4.63 54.3 585.37 0.00 15.6
01/19/2019 08:00 4.64 55.6 585.38 0.00 15.2
01/19/2019 07:00 4.64 55.6 585.37 0.00 15.9
01/19/2019 06:00 4.64 55.6 585.38 0.00 17.1
01/19/2019 05:00 4.64 55.6 585.38 0.00 18.3
01/19/2019 04:00 4.64 55.6 585.39 0.00 19.1
01/19/2019 03:00 4.63 54.3 585.38 0.00 20.8
01/19/2019 02:00 4.64 55.6 585.36 0.00 21.7
01/19/2019 01:00 4.64 55.6 585.37 0.00 23.6
01/19/2019 00:00 4.64 55.6 585.38 0.00 23.3
01/18/2019 23:00 4.64 55.6 585.38 0.00 27.6
01/18/2019 22:00 4.64 55.6 585.38 0.00 22.0
01/18/2019 21:00 4.64 55.6 585.39 0.00 20.4
01/18/2019 20:00 4.64 55.6 585.38 0.00 19.8
01/18/2019 19:00 4.64 55.6 585.39 0.00 18.9
01/18/2019 18:00 4.64 55.6 585.39 0.00 19.9
01/18/2019 17:00 4.64 55.6 585.38 0.00 20.9
01/18/2019 16:00 4.63 54.3 585.37 0.00 21.5
01/18/2019 15:00 4.64 55.6 585.38 0.00 21.3
01/18/2019 14:00 4.64 55.6 585.38 0.00 21.2
01/18/2019 13:00 4.64 55.6 585.38 0.00 20.9
01/18/2019 12:00 4.64 55.6 585.38 0.00 19.0
01/18/2019 11:00 4.63 54.3 585.36 0.00 17.8
01/18/2019 10:00 4.64 55.6 585.37 0.00 16.6
01/18/2019 09:00 4.64 55.6 585.37 0.00 15.3
01/18/2019 08:00 4.63 54.3 585.36 0.00 14.2
01/18/2019 07:00 4.64 55.6 585.37 0.00 13.6
01/18/2019 06:00 4.64 55.6 585.38 0.00 12.8
01/18/2019 05:00 4.64 55.6 585.38 0.00 11.9
01/18/2019 04:00 4.64 55.6 585.38 0.00 11.9
01/18/2019 03:00 4.64 55.6 585.39 0.00 12.9
01/18/2019 02:00 4.64 55.6 585.38 0.00 12.6
01/18/2019 01:00 4.64 55.6 585.37 0.00 12.2
01/18/2019 00:00 4.64 55.6 585.37 0.00 12.2
01/17/2019 23:00 4.64 55.6 585.38 0.00 11.7
01/17/2019 22:00 4.64 55.6 585.39 0.00 11.4
01/17/2019 21:00 4.64 55.6 585.39 0.00 11.4
01/17/2019 20:00 4.64 55.6 585.37 0.00 11.6
01/17/2019 19:00 4.64 55.6 585.37 0.00 11.9
01/17/2019 18:00 4.64 55.6 585.37 0.00 12.4
01/17/2019 17:00 4.64 55.6 585.37 0.00 13.6
01/17/2019 16:00 4.64 55.6 585.37 0.00 16.2
01/17/2019 15:00 4.64 55.6 585.38 0.00 17.2
01/17/2019 14:00 4.64 55.6 585.38 0.00 16.6
01/17/2019 13:00 4.64 55.6 585.38 0.00 15.8
01/17/2019 12:00 4.64 55.6 585.39 0.00 12.9
01/17/2019 11:00 4.65 57.0 585.39 0.00 9.9
01/17/2019 10:00 4.65 57.0 585.39 0.00 7.2
01/17/2019 09:00 4.65 57.0 585.39 0.00 4.2
01/17/2019 08:00 4.65 57.0 585.38 0.00 1.3
01/17/2019 07:00 4.64 55.6 585.38 0.00 2.6
01/17/2019 06:00 4.64 55.6 585.38 0.00 3.4
01/17/2019 05:00 4.64 55.6 585.38 0.00 4.9
01/17/2019 04:00 4.65 57.0 585.38 0.00 5.6
01/17/2019 03:00 4.65 57.0 585.38 0.00 7.1
01/17/2019 02:00 4.65 57.0 585.39 0.00 8.5
01/17/2019 01:00 4.65 57.0 585.39 0.00 10.4
01/17/2019 00:00 4.64 55.6 585.39 0.00 12.7
01/16/2019 23:00 4.64 55.6 585.39 0.00 15.7
01/16/2019 22:00 4.65 57.0 585.41 0.00 19.6
01/16/2019 21:00 4.64 55.6 585.40 0.00 24.0
01/16/2019 20:00 4.64 55.6 585.36 0.00 27.4
01/16/2019 19:00 4.64 55.6 585.38 0.00 31.2
01/16/2019 18:00 4.64 55.6 585.39 0.00 31.2
01/16/2019 17:00 4.64 55.6 585.36 0.00 31.8
01/16/2019 16:00 4.64 55.6 585.37 0.00 32.7
01/16/2019 15:00 4.64 55.6 585.37 0.00 34.0
01/16/2019 14:00 4.52 40.4 585.38 0.00 34.6
01/16/2019 13:00 4.69 62.6 585.38 0.00 31.6
01/16/2019 12:00 4.69 62.6 585.35 0.00 31.4
01/16/2019 11:00 4.71 65.4 585.38 0.00 30.7
01/16/2019 10:00 4.70 64.0 585.38 0.00 25.9
01/16/2019 09:00 4.69 62.6 585.37 0.00 22.9
01/16/2019 08:00 4.70 64.0 585.38 0.00 21.6
01/16/2019 07:00 4.69 62.6 585.37 0.00 21.0
01/16/2019 06:00 4.69 62.6 585.36 0.00 20.8
01/16/2019 05:00 4.69 62.6 585.37 0.00 20.0
01/16/2019 04:00 4.70 64.0 585.37 0.00 19.1
01/16/2019 03:00 4.70 64.0 585.37 0.00 20.9
01/16/2019 02:00 4.69 62.6 585.37 0.00 20.6
01/16/2019 01:00 4.69 62.6 585.37 0.00 22.6
01/16/2019 00:00 4.69 62.6 585.37 0.00 23.8
01/15/2019 23:00 4.70 64.0 585.38 0.00 24.0
01/15/2019 22:00 4.70 64.0 585.38 0.00 24.2
01/15/2019 21:00 4.70 64.0 585.38 0.00 24.4
01/15/2019 20:00 4.70 64.0 585.37 0.00 24.7
01/15/2019 19:00 4.69 62.6 585.37 0.00 25.2
01/15/2019 18:00 4.69 62.6 585.38 0.00 25.8
01/15/2019 17:00 4.69 62.6 585.38 0.00 26.5
01/15/2019 16:00 4.70 64.0 585.37 0.00 27.6
01/15/2019 15:00 4.70 64.0 585.37 0.00 28.2
01/15/2019 14:00 4.69 62.6 585.38 0.00 27.1
01/15/2019 13:00 4.69 62.6 585.37 0.00 27.5
01/15/2019 12:00 4.70 64.0 585.38 0.00 25.9
01/15/2019 11:00 4.70 64.0 585.38 0.00 24.8
01/15/2019 10:00 4.70 64.0 585.40 0.00 24.6
01/15/2019 09:00 4.70 64.0 585.38 0.00 22.2
01/15/2019 08:00 4.70 64.0 585.38 0.00 21.6
01/15/2019 07:00 4.69 62.6 585.37 0.00 20.4
01/15/2019 06:00 4.69 62.6 585.39 0.00 19.0
01/15/2019 05:00 4.70 64.0 585.38 0.00 19.5
01/15/2019 04:00 4.71 65.4 585.40 0.00 19.7
01/15/2019 03:00 4.70 64.0 585.38 0.00 20.0
01/15/2019 02:00 4.70 64.0 585.38 0.00 20.7
01/15/2019 01:00 4.69 62.6 585.38 0.00 15.0
01/15/2019 00:00 4.70 64.0 585.37 0.00 16.1
01/14/2019 23:00 4.70 64.0 585.37 0.00 14.0
01/14/2019 22:00 4.70 64.0 585.38 0.00 16.3
01/14/2019 21:00 4.70 64.0 585.38 0.00 19.4
01/14/2019 20:00 4.70 64.0 585.37 0.00 17.7
01/14/2019 19:00 4.69 62.6 585.38 0.00 22.0
01/14/2019 18:00 4.69 62.6 585.38 0.00 22.7
01/14/2019 17:00 4.69 62.6 585.37 0.00 23.9
01/14/2019 16:00 4.70 64.0 585.38 0.00 25.6
01/14/2019 15:00 4.70 64.0 585.38 0.00 25.9
01/14/2019 14:00 4.70 64.0 585.38 0.00 24.7
01/14/2019 13:00 4.70 64.0 585.38 0.00 20.9
01/14/2019 12:00 4.69 62.6 585.38 0.00 15.6
01/14/2019 11:00 4.70 64.0 585.38 0.00 9.8
01/14/2019 10:00 4.70 64.0 585.37 0.00 5.9
01/14/2019 09:00 4.61 51.6 585.39 0.00 -0.3
01/14/2019 08:00 4.79 77.5 585.38 0.00 -2.5
01/14/2019 07:00 4.78 76.0 585.38 0.00 -2.0
01/14/2019 06:00 4.77 74.4 585.38 0.00 -3.0
01/14/2019 05:00 4.77 74.4 585.38 0.00 -1.3
01/14/2019 04:00 4.77 74.4 585.37 0.00 -1.7
01/14/2019 03:00 4.77 74.4 585.37 0.00 -1.0
01/14/2019 02:00 4.77 74.4 585.37 0.00 0.1
01/14/2019 01:00 4.76 72.9 585.37 0.00 0.8
01/14/2019 00:00 4.77 74.4 585.37 0.00 1.4
01/13/2019 23:00 4.77 74.4 585.37 0.00 2.8
01/13/2019 22:00 4.77 74.4 585.37 0.00 3.9
01/13/2019 21:00 4.78 76.0 585.38 0.00 6.4
01/13/2019 20:00 4.77 74.4 585.38 0.00 8.4
01/13/2019 19:00 4.76 72.9 585.38 0.00 10.5
01/13/2019 18:00 4.77 74.4 585.38 0.00 13.1
01/13/2019 17:00 4.77 74.4 585.37 0.00 14.1
01/13/2019 16:00 4.78 76.0 585.38 0.00 18.0
01/13/2019 15:00 4.78 76.0 585.38 0.00 19.9
01/13/2019 14:00 4.78 76.0 585.39 0.00 19.8
01/13/2019 13:00 4.78 76.0 585.39 0.00 19.8
01/13/2019 12:00 4.78 76.0 585.39 0.00 16.1
01/13/2019 11:00 4.78 76.0 585.39 0.00 12.9
01/13/2019 10:00 4.77 74.4 585.38 0.00 8.4
01/13/2019 09:00 4.76 72.9 585.37 0.00 3.2
01/13/2019 08:00 4.76 72.9 585.37 0.00 -0.5
01/13/2019 07:00 4.77 74.4 585.38 0.00 0.3
01/13/2019 06:00 4.78 76.0 585.37 0.00 1.7
01/13/2019 05:00 4.79 77.5 585.39 0.00 3.0
01/13/2019 04:00 4.79 77.5 585.39 0.00 7.7
01/13/2019 03:00 4.78 76.0 585.39 0.00 8.0
01/13/2019 02:00 4.78 76.0 585.38 0.00 8.4
01/13/2019 01:00 4.78 76.0 585.39 0.00 8.4
01/13/2019 00:00 4.78 76.0 585.36 0.00 8.2
01/12/2019 23:00 4.79 77.5 585.39 0.00 9.2
01/12/2019 22:00 4.79 77.5 585.39 0.00 9.5
01/12/2019 21:00 4.77 74.4 585.38 0.00 9.9
01/12/2019 20:00 4.78 76.0 585.39 0.00 10.9
01/12/2019 19:00 4.80 79.1 585.40 0.00 11.3
01/12/2019 18:00 4.80 79.1 585.39 0.00 12.3
01/12/2019 17:00 4.79 77.5 585.39 0.00 13.5
01/12/2019 16:00 4.79 77.5 585.39 0.00 14.5
01/12/2019 15:00 4.81 80.7 585.40 0.00 15.5
01/12/2019 14:00 4.79 77.5 585.39 0.00 15.3
01/12/2019 13:00 4.79 77.5 585.37 0.00 14.2
01/12/2019 12:00 4.80 79.1 585.41 0.00 10.9
01/12/2019 11:00 4.83 83.9 585.41 0.00 9.0
01/12/2019 10:00 5.22 157.3 585.39 0.00 7.0
01/12/2019 09:00 5.22 157.3 585.37 0.00 5.7
01/12/2019 08:00 5.22 157.3 585.36 0.00 4.3
01/12/2019 07:00 5.22 157.3 585.37 0.00 3.3
01/12/2019 06:00 5.23 159.5 585.35 0.00 3.1
01/12/2019 05:00 5.24 161.6 585.39 0.00 4.4
01/12/2019 04:00 5.24 161.6 585.40 0.00 3.0
01/12/2019 03:00 5.25 163.8 585.38 0.00 2.4
01/12/2019 02:00 5.24 161.6 585.39 0.00 3.0
01/12/2019 01:00 5.25 163.8 585.38 0.00 2.6
01/12/2019 00:00 5.24 161.6 585.40 0.00 3.3
01/11/2019 23:00 5.25 163.8 585.38 0.00 3.7
01/11/2019 22:00 5.24 161.6 585.42 0.00 4.4
01/11/2019 21:00 5.25 163.8 585.38 0.00 4.4
01/11/2019 20:00 5.26 166.0 585.40 0.00 4.2
01/11/2019 19:00 5.25 163.8 585.40 0.00 4.6
01/11/2019 18:00 5.26 166.0 585.37 0.00 6.2
01/11/2019 17:00 5.26 166.0 585.40 0.00 9.4
01/11/2019 16:00 5.26 166.0 585.39 0.00 11.8
01/11/2019 15:00 5.26 166.0 585.42 0.00 13.9
01/11/2019 14:00 5.27 168.3 585.40 0.00 14.8
01/11/2019 13:00 5.28 170.5 585.39 0.00 15.6
01/11/2019 12:00 5.26 166.0 585.39 0.00 14.1
01/11/2019 11:00 5.27 168.3 585.44 0.00 12.9
01/11/2019 10:00 5.27 168.3 585.42 0.00 12.4
01/11/2019 09:00 5.28 170.5 585.41 0.00 11.9
01/11/2019 08:00 5.28 170.5 585.40 0.00 11.4
01/11/2019 07:00 5.26 166.0 585.41 0.00 11.1
01/11/2019 06:00 5.28 170.5 585.44 0.00 11.8
01/11/2019 05:00 5.29 172.7 585.44 0.00 12.1
01/11/2019 04:00 5.27 168.3 585.45 0.00 12.7
01/11/2019 03:00 5.28 170.5 585.43 0.00 13.2
01/11/2019 02:00 5.29 172.7 585.43 0.00 14.2
01/11/2019 01:00 5.29 172.7 585.43 0.00 15.3
01/11/2019 00:00 5.28 170.5 585.43 0.00 15.9
01/10/2019 23:00 5.29 172.7 585.44 0.00 16.5
01/10/2019 22:00 5.29 172.7 585.45 0.00 17.5
01/10/2019 21:00 5.30 175.0 585.45 0.00 17.9
01/10/2019 20:00 5.30 175.0 585.45 0.00 18.6
01/10/2019 19:00 5.29 172.7 585.42 0.00 19.3
01/10/2019 18:00 5.29 172.7 585.47 0.00 20.4
01/10/2019 17:00 5.30 175.0 585.42 0.00 21.1
01/10/2019 16:00 5.29 172.7 585.43 0.00 22.2
01/10/2019 15:00 5.30 175.0 585.46 0.00 24.2
01/10/2019 14:00 5.30 175.0 585.40 0.00 24.1
01/10/2019 13:00 5.30 175.0 585.45 0.00 24.9
01/10/2019 12:00 5.30 175.0 585.45 0.00 26.0
01/10/2019 11:00 5.31 177.2 585.46 0.00 27.6
01/10/2019 10:00 5.31 177.2 585.46 0.00 27.5
01/10/2019 09:00 5.36 188.6 585.46 0.00 27.4
01/10/2019 08:00 5.37 191.0 585.46 0.00 26.6
01/10/2019 07:00 5.38 193.3 585.46 0.00 26.8
01/10/2019 06:00 5.37 191.0 585.45 0.00 26.6
01/10/2019 05:00 5.37 191.0 585.48 0.00 27.2
01/10/2019 04:00 -- -- -- -- --
01/10/2019 03:00 -- -- -- -- --
01/10/2019 02:00 -- -- -- -- --